Weather History for West Bend, WI

Change the Weather History Date:

Monday, March 18, 2013

  Actual Average Record
Temperature  
Mean Temperature 26 °F -  
Max Temperature 32 °F 41 °F 78 °F (2012)
Min Temperature 19 °F 24 °F -2 °F (1941)
Degree Days  
Heating Degree Days 40    
Moisture  
Dew Point 24 °F    
Average Humidity 82    
Maximum Humidity 93    
Minimum Humidity 69    
Precipitation  
Precipitation 0.02 in - - ()
Sea Level Pressure  
Sea Level Pressure 29.71 in    
Wind  
Wind Speed 11 mph (SE)    
Max Wind Speed 25 mph    
Max Gust Speed 34 mph    
Visibility 6 miles    
Events Snow    
Averages and records for this station are not official NWS values.
T = Trace of Precipitation, MM = Missing Value Source: NWS Daily Summary

Daily Weather History Graph

Daily Weather History Graph

Search for Another Location

Airport:

Trip Planner

Search our weather history database for the weather conditions in past years. The results will help you decide how hot, cold, wet, or windy it might be!

Date:

Astronomy

Mar. 18, 2013 Rise Set
Actual Time 6:58 AM CDT 7:02 PM CDT
Civil Twilight 6:30 AM CDT 7:31 PM CDT
Nautical Twilight 5:57 AM CDT 8:04 PM CDT
Astronomical Twilight 5:23 AM CDT 8:38 PM CDT
Moon 10:48 AM CDT (3/18) 1:11 AM CDT (3/18)
Length of Visible Light 13h 00m
Length of Day
12h 03m
Waxing Crescent, 41% of the Moon is Illuminated
Mar 18
Waxing Crescent
Mar 19
First Quarter
Mar 27
Full
Apr 2
Last Quarter
Apr 10
New

Hourly Weather History & Observations

Time (CDT) Temp. Windchill Dew Point Humidity Pressure Visibility Wind Dir Wind Speed Gust Speed Precip Events Conditions
12:15 AM 28.4 °F 18.0 °F 21.2 °F 74% 30.01 in 10.0 mi ESE 12.7 mph - N/A   Clear
12:35 AM 28.4 °F 18.5 °F 21.2 °F 74% 30.00 in 10.0 mi ESE 11.5 mph 17.3 mph N/A   Clear
12:55 AM 28.4 °F 18.5 °F 21.2 °F 74% 29.99 in 10.0 mi ESE 11.5 mph - N/A   Scattered Clouds
1:15 AM 28.4 °F 18.0 °F 21.2 °F 74% 29.98 in 10.0 mi ESE 12.7 mph - N/A   Scattered Clouds
1:35 AM 28.4 °F 18.0 °F 21.2 °F 74% 29.97 in 10.0 mi ESE 12.7 mph - N/A   Scattered Clouds
1:55 AM 28.4 °F 19.1 °F 19.4 °F 69% 29.97 in 10.0 mi ESE 10.4 mph - N/A   Scattered Clouds
2:15 AM 28.4 °F 19.1 °F 21.2 °F 74% 29.96 in 10.0 mi ESE 10.4 mph - N/A   Mostly Cloudy
2:35 AM 28.4 °F 19.1 °F 21.2 °F 74% 29.95 in 10.0 mi ESE 10.4 mph - N/A   Overcast
2:55 AM 28.4 °F 18.5 °F 21.2 °F 74% 29.93 in 10.0 mi ESE 11.5 mph - N/A   Overcast
3:15 AM 28.4 °F 18.5 °F 21.2 °F 74% 29.92 in 10.0 mi ESE 11.5 mph 17.3 mph N/A   Overcast
3:35 AM 30.2 °F 21.9 °F 23.0 °F 75% 29.91 in 10.0 mi ESE 9.2 mph 18.4 mph N/A   Overcast
3:55 AM 30.2 °F 21.3 °F 23.0 °F 75% 29.91 in 10.0 mi SE 10.4 mph 17.3 mph N/A   Overcast
4:15 AM 30.2 °F 21.9 °F 23.0 °F 75% 29.89 in 10.0 mi ESE 9.2 mph 17.3 mph N/A   Overcast
4:35 AM 30.2 °F 20.8 °F 23.0 °F 75% 29.88 in 10.0 mi ESE 11.5 mph 17.3 mph N/A   Overcast
4:55 AM 30.2 °F 20.8 °F 23.0 °F 75% 29.86 in 10.0 mi ESE 11.5 mph - N/A   Overcast
5:15 AM 30.2 °F 19.8 °F 23.0 °F 75% 29.85 in 10.0 mi ESE 13.8 mph 19.6 mph N/A   Overcast
5:35 AM 30.2 °F 21.9 °F 23.0 °F 75% 29.85 in 10.0 mi ESE 9.2 mph 18.4 mph N/A   Overcast
6:35 AM 28.4 °F 19.7 °F 23.0 °F 80% 29.84 in 10.0 mi ESE 9.2 mph - N/A   Overcast
6:55 AM 28.4 °F 19.1 °F 23.0 °F 80% 29.82 in 10.0 mi East 10.4 mph - N/A   Overcast
7:15 AM 28.4 °F 18.5 °F 23.0 °F 80% 29.83 in 10.0 mi East 11.5 mph - N/A   Overcast
7:35 AM 28.4 °F 22.2 °F 23.0 °F 80% 29.82 in 10.0 mi East 5.8 mph - N/A   Overcast
7:55 AM 28.4 °F 19.7 °F 23.0 °F 80% 29.81 in 10.0 mi East 9.2 mph - N/A   Overcast
8:15 AM 28.4 °F 19.1 °F 23.0 °F 80% 29.80 in 10.0 mi East 10.4 mph - N/A   Overcast
8:35 AM 28.4 °F 18.5 °F 23.0 °F 80% 29.78 in 10.0 mi East 11.5 mph 16.1 mph N/A   Overcast
8:55 AM 28.4 °F 20.4 °F 23.0 °F 80% 29.77 in 10.0 mi East 8.1 mph - N/A   Overcast
9:15 AM 28.4 °F 19.7 °F 23.0 °F 80% 29.75 in 10.0 mi East 9.2 mph - N/A   Overcast
9:35 AM 28.4 °F 19.1 °F 24.8 °F 86% 29.73 in 3.0 mi East 10.4 mph - N/A Snow Light Snow
9:55 AM 28.4 °F 19.1 °F 24.8 °F 86% 29.72 in 0.5 mi East 10.4 mph - N/A Snow Light Snow
10:15 AM 30.2 °F 21.9 °F 24.8 °F 80% 29.71 in 1.0 mi East 9.2 mph - N/A Snow Light Snow
10:35 AM 28.4 °F 19.1 °F 26.6 °F 93% 29.69 in 1.2 mi East 10.4 mph - N/A Snow Light Snow
10:55 AM 30.2 °F 21.3 °F 26.6 °F 86% 29.68 in 1.8 mi East 10.4 mph - N/A Snow Light Snow
11:15 AM 30.2 °F 21.9 °F 26.6 °F 86% 29.68 in 5.0 mi East 9.2 mph - N/A Snow Light Snow
11:55 AM 30.2 °F 22.6 °F 26.6 °F 86% 29.66 in 1.2 mi ESE 8.1 mph - N/A Snow Light Snow
12:15 PM 30.2 °F 21.9 °F 26.6 °F 86% 29.65 in 0.5 mi ESE 9.2 mph - N/A Snow Snow
12:35 PM 30.2 °F 22.6 °F 26.6 °F 86% 29.64 in 0.5 mi ESE 8.1 mph - N/A Snow Snow
12:55 PM 30.2 °F 24.3 °F 28.4 °F 93% 29.63 in 0.8 mi ESE 5.8 mph - N/A Snow Light Snow
1:35 PM 32.0 °F 24.2 °F 28.4 °F 87% 29.60 in 1.8 mi ESE 9.2 mph - N/A Snow Light Snow
1:55 PM 32.0 °F 28.7 °F 28.4 °F 87% 29.60 in 1.0 mi SE 3.5 mph - N/A Snow Light Snow
2:15 PM 32.0 °F 26.4 °F 28.4 °F 87% 29.58 in 1.0 mi ESE 5.8 mph - N/A Snow Light Snow
2:35 PM 32.0 °F 27.5 °F 28.4 °F 87% 29.58 in 1.0 mi SSE 4.6 mph - N/A Snow Light Snow
2:55 PM 32.0 °F 27.5 °F 28.4 °F 87% 29.57 in 0.8 mi SE 4.6 mph - N/A Snow Light Snow
3:15 PM 32.0 °F 27.5 °F 28.4 °F 87% 29.56 in 0.5 mi SE 4.6 mph - 0.01 in Snow Snow
3:35 PM 32.0 °F 28.7 °F 30.2 °F 93% 29.56 in 0.8 mi SSE 3.5 mph - 0.01 in Snow Light Snow
3:55 PM 32.0 °F 27.5 °F 30.2 °F 93% 29.56 in 1.0 mi South 4.6 mph - 0.01 in Snow Light Snow
4:15 PM 32.0 °F 28.7 °F 30.2 °F 93% 29.55 in 3.0 mi SW 3.5 mph - N/A Snow Light Snow
4:35 PM 32.0 °F 24.8 °F 30.2 °F 93% 29.55 in 2.0 mi WSW 8.1 mph - N/A Snow Light Snow
4:55 PM 32.0 °F 24.2 °F 28.4 °F 87% 29.55 in 2.5 mi WSW 9.2 mph - 0.01 in Snow Light Snow
5:15 PM 32.0 °F 26.4 °F 28.4 °F 87% 29.55 in 2.5 mi WSW 5.8 mph - N/A Snow Light Snow
5:35 PM 32.0 °F 24.2 °F 28.4 °F 87% 29.54 in 3.0 mi WSW 9.2 mph - N/A Snow Light Snow
5:55 PM 32.0 °F 24.2 °F 28.4 °F 87% 29.54 in 7.0 mi WSW 9.2 mph - N/A   Overcast
6:15 PM 32.0 °F 22.5 °F 28.4 °F 87% 29.54 in 10.0 mi WSW 12.7 mph - N/A Snow Light Snow
6:35 PM 32.0 °F 22.5 °F 28.4 °F 87% 29.53 in 10.0 mi WSW 12.7 mph - N/A   Overcast
6:55 PM 32.0 °F 24.2 °F 28.4 °F 87% 29.54 in 10.0 mi WSW 9.2 mph - N/A   Overcast
7:15 PM 32.0 °F 24.8 °F 28.4 °F 87% 29.55 in 7.0 mi WSW 8.1 mph 16.1 mph N/A   Overcast
7:35 PM 32.0 °F 25.6 °F 28.4 °F 87% 29.55 in 5.0 mi WSW 6.9 mph - N/A   Overcast
7:55 PM 32.0 °F 19.2 °F 28.4 °F 87% 29.57 in 4.0 mi West 23.0 mph 29.9 mph N/A   Overcast
8:15 PM 28.4 °F 13.8 °F 24.8 °F 86% 29.58 in 3.0 mi WSW 25.3 mph 34.5 mph N/A   Overcast
8:35 PM 26.6 °F 13.4 °F 23.0 °F 86% 29.59 in 3.0 mi WSW 18.4 mph 28.8 mph N/A   Overcast
8:55 PM 24.8 °F 9.6 °F 19.4 °F 80% 29.61 in 5.0 mi West 23.0 mph 31.1 mph N/A   Haze
9:15 PM 24.8 °F 10.7 °F 15.8 °F 69% 29.61 in 10.0 mi West 19.6 mph 27.6 mph N/A   Overcast
9:35 PM 23.0 °F 10.6 °F 17.6 °F 80% 29.62 in 10.0 mi West 13.8 mph - N/A   Overcast
9:55 PM 23.0 °F 8.0 °F 17.6 °F 80% 29.62 in 10.0 mi West 20.7 mph 27.6 mph N/A   Overcast
10:15 PM 23.0 °F 7.6 °F 15.8 °F 74% 29.63 in 7.0 mi West 21.9 mph 31.1 mph N/A Snow Light Snow
10:55 PM 19.4 °F 4.5 °F 12.2 °F 74% 29.64 in 10.0 mi West 17.3 mph 25.3 mph N/A Snow Light Snow
11:15 PM 19.4 °F 5.0 °F 14.0 °F 80% 29.65 in 5.0 mi West 16.1 mph 20.7 mph N/A Snow Light Snow
11:35 PM 19.4 °F 3.6 °F 12.2 °F 74% 29.65 in 5.0 mi West 19.6 mph 27.6 mph N/A Snow Light Snow
11:55 PM 19.4 °F 6.0 °F 12.2 °F 74% 29.65 in 10.0 mi WSW 13.8 mph 26.5 mph N/A Snow Light Snow